Map

Track Data

SID SEASON NUMBER BASIN SUBBASIN NAME ISO_TIME NATURE LAT LON WMO_WIND WMO_PRES WMO_AGENCY TRACK_TYPE DIST2LAND LANDFALL IFLAG USA_AGENCY USA_ATCF_ID USA_LAT USA_LON USA_RECORD USA_STATUS USA_WIND USA_PRES USA_SSHS USA_R34_NE USA_R34_SE USA_R34_SW USA_R34_NW USA_R50_NE USA_R50_SE USA_R50_SW USA_R50_NW USA_R64_NE USA_R64_SE USA_R64_SW USA_R64_NW USA_POCI USA_ROCI USA_RMW USA_EYE TOKYO_LAT TOKYO_LON TOKYO_GRADE TOKYO_WIND TOKYO_PRES TOKYO_R50_DIR TOKYO_R50_LONG TOKYO_R50_SHORT TOKYO_R30_DIR TOKYO_R30_LONG TOKYO_R30_SHORT TOKYO_LAND CMA_LAT CMA_LON CMA_CAT CMA_WIND CMA_PRES HKO_LAT HKO_LON HKO_CAT HKO_WIND HKO_PRES NEWDELHI_LAT NEWDELHI_LON NEWDELHI_GRADE NEWDELHI_WIND NEWDELHI_PRES NEWDELHI_CI NEWDELHI_DP NEWDELHI_POCI REUNION_LAT REUNION_LON REUNION_TYPE REUNION_WIND REUNION_PRES REUNION_TNUM REUNION_CI REUNION_RMW REUNION_R34_NE REUNION_R34_SE REUNION_R34_SW REUNION_R34_NW REUNION_R50_NE REUNION_R50_SE REUNION_R50_SW REUNION_R50_NW REUNION_R64_NE REUNION_R64_SE REUNION_R64_SW REUNION_R64_NW BOM_LAT BOM_LON BOM_TYPE BOM_WIND BOM_PRES BOM_TNUM BOM_CI BOM_RMW BOM_R34_NE BOM_R34_SE BOM_R34_SW BOM_R34_NW BOM_R50_NE BOM_R50_SE BOM_R50_SW BOM_R50_NW BOM_R64_NE BOM_R64_SE BOM_R64_SW BOM_R64_NW BOM_ROCI BOM_POCI BOM_EYE BOM_POS_METHOD BOM_PRES_METHOD NADI_LAT NADI_LON NADI_CAT NADI_WIND NADI_PRES WELLINGTON_LAT WELLINGTON_LON WELLINGTON_WIND WELLINGTON_PRES DS824_LAT DS824_LON DS824_STAGE DS824_WIND DS824_PRES TD9636_LAT TD9636_LON TD9636_STAGE TD9636_WIND TD9636_PRES TD9635_LAT TD9635_LON TD9635_WIND TD9635_PRES TD9635_ROCI NEUMANN_LAT NEUMANN_LON NEUMANN_CLASS NEUMANN_WIND NEUMANN_PRES MLC_LAT MLC_LON MLC_CLASS MLC_WIND MLC_PRES USA_GUST BOM_GUST BOM_GUST_PER REUNION_GUST REUNION_GUST_PER USA_SEAHGT USA_SEARAD_NE USA_SEARAD_SE USA_SEARAD_SW USA_SEARAD_NW STORM_SPEED STORM_DIR
1930041S20069 1930 11 SI MM NOT_NAMED 1930-02-10 00:00:00 TS -19.7000 69.4000 main 1213 1149 _________O____ -1 -19.7000 69.4000 TC 25 12 247
1930041S20069 1930 11 SI MM NOT_NAMED 1930-02-10 03:00:00 TS -19.9379 68.8027 main 1149 1084 _________P____ -1 -19.9379 68.8027 TC 25 12 246
1930041S20069 1930 11 SI MM NOT_NAMED 1930-02-10 06:00:00 TS -20.2000 68.2000 main 1084 1021 _________O____ -1 -20.2000 68.2000 TC 25 13 244
1930041S20069 1930 11 SI MM NOT_NAMED 1930-02-10 09:00:00 TS -20.4999 67.5925 main 1021 959 _________P____ -1 -20.4999 67.5925 TC 25 13 242
1930041S20069 1930 11 SI MM NOT_NAMED 1930-02-10 12:00:00 TS -20.8000 67.0000 main 959 908 _________O____ -1 -20.8000 67.0000 TC 25 12 243
1930041S20069 1930 11 SI MM NOT_NAMED 1930-02-10 15:00:00 TS -21.0573 66.4347 main 898 849 _________P____ -1 -21.0573 66.4347 TC 25 11 244
1930041S20069 1930 11 SI MM NOT_NAMED 1930-02-10 18:00:00 TS -21.3000 65.9000 main 849 800 _________O____ -1 -21.3000 65.9000 TC 25 11 243
1930041S20069 1930 11 SI MM NOT_NAMED 1930-02-10 21:00:00 TS -21.5573 65.3849 main 802 755 _________P____ -1 -21.5573 65.3849 TC 25 11 242
1930041S20069 1930 11 SI MM NOT_NAMED 1930-02-11 00:00:00 TS -21.8000 64.9000 main 755 720 _________O____ -1 -21.8000 64.9000 TC 25 10 243
1930041S20069 1930 11 SI MM NOT_NAMED 1930-02-11 03:00:00 TS -22.0074 64.4348 main 710 676 _________P____ -1 -22.0074 64.4348 TC 25 9 244
1930041S20069 1930 11 SI MM NOT_NAMED 1930-02-11 06:00:00 TS -22.2000 64.0000 main 676 644 _________O____ -1 -22.2000 64.0000 TC 25 9 243
1930041S20069 1930 11 SI MM NOT_NAMED 1930-02-11 09:00:00 TS -22.3998 63.5998 main 644 615 _________P____ -1 -22.3998 63.5998 TC 25 8 242
1930041S20069 1930 11 SI MM NOT_NAMED 1930-02-11 12:00:00 TS -22.6000 63.2000 main 615 586 _________O____ -1 -22.6000 63.2000 TC 25 9 243
1930041S20069 1930 11 SI MM NOT_NAMED 1930-02-11 15:00:00 TS -22.7924 62.7573 main 586 551 _________P____ -1 -22.7924 62.7573 TC 25 9 244
1930041S20069 1930 11 SI MM NOT_NAMED 1930-02-11 18:00:00 TS -23.0000 62.3000 main 551 519 _________O____ -1 -23.0000 62.3000 TC 25 10 242
1930041S20069 1930 11 SI MM NOT_NAMED 1930-02-11 21:00:00 TS -23.2576 61.8202 main 526 507 _________P____ -1 -23.2576 61.8202 TC 25 10 239
1930041S20069 1930 11 SI MM NOT_NAMED 1930-02-12 00:00:00 TS -23.5000 61.4000 main 507 492 _________O____ -1 -23.5000 61.4000 TC 25 8 238
1930041S20069 1930 11 SI MM NOT_NAMED 1930-02-12 03:00:00 TS -23.6648 61.1197 main 500 493 _________P____ -1 -23.6648 61.1197 TC 25 5 237
1930041S20069 1930 11 SI MM NOT_NAMED 1930-02-12 06:00:00 TS -23.8000 60.9000 main 494 487 _________O____ -1 -23.8000 60.9000 TC 25 5 236
1930041S20069 1930 11 SI MM NOT_NAMED 1930-02-12 09:00:00 TS -23.9499 60.6574 main 489 485 _________P____ -1 -23.9499 60.6574 TC 25 5 237
1930041S20069 1930 11 SI MM NOT_NAMED 1930-02-12 12:00:00 TS -24.1000 60.4000 main 488 481 _________O____ -1 -24.1000 60.4000 TC 25 6 240
1930041S20069 1930 11 SI MM NOT_NAMED 1930-02-12 15:00:00 TS -24.2425 60.0999 main 481 481 _________P____ -1 -24.2425 60.0999 TC 25 6 241
1930041S20069 1930 11 SI MM NOT_NAMED 1930-02-12 18:00:00 TS -24.4000 59.8000 main 486 481 _________O____ -1 -24.4000 59.8000 TC 25 6 236
1930041S20069 1930 11 SI MM NOT_NAMED 1930-02-12 21:00:00 TS -24.5900 59.5377 main 494 494 _________P____ -1 -24.5900 59.5377 TC 25 6 229
1930041S20069 1930 11 SI MM NOT_NAMED 1930-02-13 00:00:00 TS -24.8000 59.3000 main 507 _________O____ -1 -24.8000 59.3000 TC 25 6 226

About IBTrACS Database

This database is a web-friendly format of International Best Track Archive for Climate Stewardship (IBTrACS), a global best track data archive curated by NOAA dating back to 1842.

Updated: 2021-10-21